Time;durP1;ratioP1;P1;durP2;ratioP2;P2;SDS_P1;SDS_P2;PMS_P1;PMS_P2;Temp;Humidity;BMP_temperature;BMP_pressure;BME280_temperature;BME280_humidity;BME280_pressure;Samples;Min_cycle;Max_cycle;Signal;HPM_P1;HPM_P2
2021/07/28 00:00:47;;;;;;;10.17;8.70;;;18.30;93.30;;;;;;5053957;28;20626;-81
2021/07/28 00:03:12;;;;;;;11.10;8.50;;;18.40;93.80;;;;;;5053474;28;20177;-81
2021/07/28 00:05:38;;;;;;;9.63;8.43;;;18.30;93.80;;;;;;5053005;28;20180;-81
2021/07/28 00:08:04;;;;;;;11.73;8.53;;;18.40;93.60;;;;;;5054069;28;20180;-81
2021/07/28 00:10:30;;;;;;;11.03;8.67;;;18.40;93.40;;;;;;5053666;28;20172;-79
2021/07/28 00:12:56;;;;;;;10.43;8.60;;;18.40;93.50;;;;;;5052497;28;20212;-79
2021/07/28 00:15:21;;;;;;;11.03;8.77;;;18.40;94.00;;;;;;5053810;28;20199;-78
2021/07/28 00:17:50;;;;;;;12.17;8.50;;;18.40;93.80;;;;;;5054381;28;20239;-79
2021/07/28 00:23:14;;;;;;;11.53;9.47;;;18.30;94.60;;;;;;5062414;28;20702;-81
2021/07/28 00:25:44;;;;;;;12.23;9.07;;;18.40;94.70;;;;;;5053811;28;20216;-81
2021/07/28 00:28:11;;;;;;;10.87;8.93;;;18.40;94.80;;;;;;5053160;28;20178;-79
2021/07/28 00:30:39;;;;;;;11.23;9.17;;;18.40;95.00;;;;;;5055113;28;20192;-80
2021/07/28 00:33:05;;;;;;;11.43;8.93;;;18.50;94.60;;;;;;5053507;28;20177;-81
2021/07/28 00:35:31;;;;;;;14.00;9.93;;;18.50;94.70;;;;;;5054240;28;20173;-80
2021/07/28 00:38:05;;;;;;;12.33;9.50;;;18.50;94.90;;;;;;5053853;28;20164;-78
2021/07/28 00:40:30;;;;;;;15.57;10.40;;;18.40;95.10;;;;;;5053323;28;20169;-80
2021/07/28 00:43:14;;;;;;;12.73;9.33;;;18.50;95.00;;;;;;5054287;28;20194;-81
2021/07/28 00:45:40;;;;;;;12.17;10.60;;;18.50;95.00;;;;;;5054610;28;20641;-79
2021/07/28 00:48:07;;;;;;;11.20;10.00;;;18.50;95.30;;;;;;5053507;28;20555;-79
2021/07/28 00:50:35;;;;;;;14.93;10.67;;;18.50;95.20;;;;;;5053723;28;20197;-80
2021/07/28 00:53:02;;;;;;;14.57;10.93;;;18.60;95.20;;;;;;5052453;28;20317;-79
2021/07/28 00:55:30;;;;;;;13.87;10.63;;;18.60;94.90;;;;;;5053427;28;20215;-79
2021/07/28 00:57:59;;;;;;;12.13;10.17;;;18.50;95.20;;;;;;5053227;28;20642;-79
2021/07/28 01:00:24;;;;;;;13.00;10.77;;;18.50;95.00;;;;;;5052826;28;20175;-80
2021/07/28 01:02:50;;;;;;;11.73;10.10;;;18.50;95.00;;;;;;5052709;28;20572;-79
2021/07/28 01:05:16;;;;;;;13.30;10.20;;;18.50;95.00;;;;;;5052867;28;20650;-79
2021/07/28 01:07:41;;;;;;;13.90;10.03;;;18.50;95.40;;;;;;5052545;28;20302;-81
2021/07/28 01:10:08;;;;;;;15.07;10.90;;;18.40;95.90;;;;;;5051346;28;20199;-79
2021/07/28 01:12:34;;;;;;;11.57;10.37;;;18.40;96.00;;;;;;5052787;28;20212;-79
2021/07/28 01:15:00;;;;;;;13.37;10.43;;;18.50;95.50;;;;;;5053511;28;20173;-80
2021/07/28 01:17:26;;;;;;;14.67;10.50;;;18.40;95.80;;;;;;5056716;28;20175;-80
2021/07/28 01:20:00;;;;;;;12.53;10.27;;;18.50;95.70;;;;;;5056783;28;20165;-80
2021/07/28 01:22:26;;;;;;;13.47;10.50;;;18.40;95.60;;;;;;5054728;28;20178;-79
2021/07/28 01:24:52;;;;;;;12.50;10.60;;;18.40;96.20;;;;;;5056755;28;20221;-79
2021/07/28 01:27:18;;;;;;;14.47;10.50;;;18.50;96.50;;;;;;5056958;28;20586;-81
2021/07/28 01:29:44;;;;;;;13.07;11.07;;;18.40;96.80;;;;;;5056928;28;20645;-82
2021/07/28 01:32:09;;;;;;;14.93;10.30;;;18.50;96.80;;;;;;5057266;28;20235;-82
2021/07/28 01:34:35;;;;;;;13.60;10.50;;;18.50;96.60;;;;;;5057500;28;20228;-80
2021/07/28 01:37:03;;;;;;;14.00;9.70;;;18.40;96.50;;;;;;5059725;28;20173;-79
2021/07/28 01:39:29;;;;;;;13.30;10.10;;;18.50;96.50;;;;;;5060412;28;20294;-80
2021/07/28 01:41:59;;;;;;;16.67;10.77;;;18.40;96.80;;;;;;5059940;28;20193;-81
2021/07/28 01:44:25;;;;;;;13.50;10.53;;;18.40;97.10;;;;;;5055524;28;20181;-83
2021/07/28 01:46:51;;;;;;;14.10;11.00;;;18.40;97.10;;;;;;5056650;28;20172;-81
2021/07/28 01:49:16;;;;;;;12.80;10.97;;;18.50;96.90;;;;;;5060918;28;20205;-80
2021/07/28 01:51:42;;;;;;;11.97;10.70;;;18.50;96.80;;;;;;5058559;28;20661;-79
2021/07/28 01:54:09;;;;;;;12.47;9.97;;;18.50;96.60;;;;;;5056720;28;20195;-79
2021/07/28 01:56:42;;;;;;;13.03;10.37;;;18.60;96.60;;;;;;5056565;28;20200;-79
2021/07/28 01:59:11;;;;;;;11.73;9.33;;;18.50;96.60;;;;;;5057038;28;20668;-80
2021/07/28 02:01:37;;;;;;;12.30;10.40;;;18.60;96.60;;;;;;5056899;28;20169;-79
2021/07/28 02:04:03;;;;;;;13.87;10.30;;;18.70;96.30;;;;;;5054806;28;20252;-82
2021/07/28 02:06:29;;;;;;;13.90;10.47;;;18.70;95.90;;;;;;5056730;28;20174;-78
2021/07/28 02:08:54;;;;;;;15.10;11.53;;;18.60;96.40;;;;;;5057382;28;20648;-79
2021/07/28 02:11:20;;;;;;;13.37;10.77;;;18.70;96.20;;;;;;5057791;28;20206;-83
2021/07/28 02:13:46;;;;;;;13.17;10.73;;;18.60;96.30;;;;;;5056477;28;20165;-81
2021/07/28 02:16:11;;;;;;;12.63;10.33;;;18.60;96.60;;;;;;5057138;28;20208;-81
2021/07/28 02:18:37;;;;;;;13.50;10.90;;;18.60;96.80;;;;;;5054728;28;20652;-81
2021/07/28 02:21:04;;;;;;;13.33;10.60;;;18.70;96.70;;;;;;5055712;28;20169;-79
2021/07/28 02:23:31;;;;;;;12.90;11.07;;;18.90;96.40;;;;;;5061228;28;20180;-81
2021/07/28 02:25:57;;;;;;;13.63;10.93;;;18.70;96.20;;;;;;5079525;28;20248;-81
2021/07/28 02:28:23;;;;;;;13.47;10.30;;;18.70;96.00;;;;;;5079216;28;20176;-78
2021/07/28 02:30:48;;;;;;;17.37;10.73;;;18.70;95.90;;;;;;5069853;28;20189;-78
2021/07/28 02:33:14;;;;;;;11.57;10.13;;;18.70;96.30;;;;;;5074027;28;20637;-78
2021/07/28 02:35:40;;;;;;;13.13;10.63;;;18.70;96.00;;;;;;5073515;28;20161;-82
2021/07/28 02:38:19;;;;;;;12.47;10.57;;;18.70;96.60;;;;;;5079892;28;20173;-76
2021/07/28 02:40:45;;;;;;;13.47;10.80;;;18.70;96.00;;;;;;5080009;28;20179;-75
2021/07/28 02:43:11;;;;;;;15.67;11.43;;;18.80;96.10;;;;;;5073825;28;20169;-79
2021/07/28 02:45:38;;;;;;;17.67;11.23;;;18.80;95.80;;;;;;5062599;28;20683;-81
2021/07/28 02:48:05;;;;;;;16.13;10.83;;;18.90;95.60;;;;;;5062817;28;20182;-78
2021/07/28 02:50:32;;;;;;;18.13;11.50;;;18.80;95.70;;;;;;5062679;28;20201;-79
2021/07/28 02:52:58;;;;;;;14.43;10.53;;;18.70;96.30;;;;;;5062527;28;20205;-79
2021/07/28 02:55:23;;;;;;;13.43;10.47;;;18.60;96.90;;;;;;5059723;28;20537;-79
2021/07/28 02:57:49;;;;;;;13.40;11.23;;;18.60;97.30;;;;;;5072911;28;20161;-77
2021/07/28 03:00:16;;;;;;;15.97;10.57;;;18.60;97.20;;;;;;5080077;28;20160;-77
2021/07/28 03:02:42;;;;;;;14.13;10.87;;;18.50;97.40;;;;;;5078867;28;20291;-78
2021/07/28 03:05:08;;;;;;;13.57;10.50;;;18.50;97.90;;;;;;5077004;28;20173;-78
2021/07/28 03:07:36;;;;;;;15.77;11.43;;;18.50;97.70;;;;;;5078491;28;20248;-77
2021/07/28 03:10:13;;;;;;;13.23;11.20;;;18.50;97.90;;;;;;5064236;28;20162;-80
2021/07/28 03:12:46;;;;;;;18.47;10.57;;;18.50;97.90;;;;;;5058808;28;20228;-78
2021/07/28 03:15:12;;;;;;;15.80;10.97;;;18.60;98.10;;;;;;5056914;28;20170;-78
2021/07/28 03:17:37;;;;;;;15.50;10.30;;;18.50;98.10;;;;;;5055391;28;20207;-77
2021/07/28 03:20:03;;;;;;;13.50;9.27;;;18.50;98.40;;;;;;5055508;28;20608;-79
2021/07/28 03:22:29;;;;;;;11.43;9.30;;;18.40;98.20;;;;;;5056620;28;20165;-78
2021/07/28 03:24:55;;;;;;;13.30;9.57;;;18.40;98.30;;;;;;5059822;28;20521;-77
2021/07/28 03:27:21;;;;;;;12.67;9.70;;;18.40;98.60;;;;;;5062786;28;20177;-77
2021/07/28 03:29:46;;;;;;;10.17;7.93;;;18.50;98.40;;;;;;5064573;28;20185;-77
2021/07/28 03:32:12;;;;;;;10.80;8.93;;;18.30;98.10;;;;;;5064118;28;20228;-78
2021/07/28 03:34:38;;;;;;;10.77;8.50;;;18.30;98.40;;;;;;5060925;28;20163;-78
2021/07/28 03:37:04;;;;;;;13.40;9.10;;;18.30;98.20;;;;;;5059182;28;20169;-78
2021/07/28 03:39:30;;;;;;;10.40;7.57;;;18.30;98.50;;;;;;5061583;28;20165;-77
2021/07/28 03:41:57;;;;;;;12.17;8.40;;;18.30;97.50;;;;;;5063951;28;20222;-80
2021/07/28 03:44:22;;;;;;;9.77;7.50;;;18.40;96.80;;;;;;5061579;28;20175;-79
2021/07/28 03:46:48;;;;;;;10.43;7.07;;;18.30;97.10;;;;;;5063411;28;20235;-76
2021/07/28 03:49:14;;;;;;;11.03;7.30;;;18.30;96.60;;;;;;5062676;28;20174;-76
2021/07/28 03:51:39;;;;;;;10.13;7.27;;;18.10;96.90;;;;;;5056420;28;20200;-79
2021/07/28 03:54:05;;;;;;;12.40;7.63;;;18.20;96.50;;;;;;5054811;28;20180;-77
2021/07/28 03:56:31;;;;;;;9.27;7.13;;;18.30;96.30;;;;;;5054284;28;20254;-82
2021/07/28 03:58:57;;;;;;;9.30;6.80;;;18.20;95.90;;;;;;5056342;28;20204;-78
2021/07/28 04:01:28;;;;;;;9.00;6.50;;;18.20;95.30;;;;;;5055915;28;20169;-82
2021/07/28 04:03:54;;;;;;;9.53;6.57;;;18.00;95.70;;;;;;5059498;28;20171;-81
2021/07/28 04:06:21;;;;;;;6.43;5.77;;;18.00;95.40;;;;;;5056618;28;20701;-78
2021/07/28 04:08:47;;;;;;;11.40;6.60;;;17.90;96.30;;;;;;5055626;28;20173;-79
2021/07/28 04:11:13;;;;;;;12.50;7.30;;;17.90;96.40;;;;;;5054310;28;20192;-79
2021/07/28 04:13:39;;;;;;;9.33;6.30;;;18.00;96.20;;;;;;5053922;28;20215;-79
2021/07/28 04:16:04;;;;;;;9.40;5.40;;;18.00;95.20;;;;;;5053661;28;20716;-79
2021/07/28 04:18:30;;;;;;;13.87;6.23;;;18.00;94.10;;;;;;5053740;28;20183;-81
2021/07/28 04:20:56;;;;;;;9.17;6.00;;;18.00;94.30;;;;;;5053464;28;20699;-79
2021/07/28 04:23:22;;;;;;;8.60;5.30;;;17.90;94.30;;;;;;5053635;28;20174;-82
2021/07/28 04:25:47;;;;;;;10.47;5.53;;;17.90;94.50;;;;;;5053349;28;20250;-83
2021/07/28 04:28:13;;;;;;;8.80;5.47;;;18.00;94.40;;;;;;5053911;28;20173;-78
2021/07/28 04:30:39;;;;;;;8.13;5.37;;;17.90;93.70;;;;;;5053067;28;20235;-79
2021/07/28 04:33:04;;;;;;;11.20;5.67;;;17.90;93.60;;;;;;5053516;28;20222;-79
2021/07/28 04:35:30;;;;;;;11.40;5.83;;;17.90;93.40;;;;;;5052064;28;20179;-79
2021/07/28 04:37:56;;;;;;;9.47;5.80;;;17.80;94.10;;;;;;5053314;28;20209;-77
2021/07/28 04:40:22;;;;;;;8.57;5.37;;;17.80;94.50;;;;;;5052956;28;20171;-78
2021/07/28 04:42:47;;;;;;;7.47;5.90;;;17.90;94.90;;;;;;5053612;28;20216;-80
2021/07/28 04:45:13;;;;;;;10.17;6.57;;;17.90;94.20;;;;;;5053688;28;20260;-81
2021/07/28 04:47:39;;;;;;;10.03;6.33;;;17.80;94.60;;;;;;5053248;28;20255;-79
2021/07/28 04:50:05;;;;;;;10.13;6.90;;;18.00;95.30;;;;;;5053068;28;20629;-80
2021/07/28 04:52:31;;;;;;;7.90;7.10;;;17.80;95.80;;;;;;5051323;28;20624;-81
2021/07/28 04:54:57;;;;;;;11.90;6.63;;;17.80;96.10;;;;;;5053400;28;20173;-79
2021/07/28 04:57:22;;;;;;;11.83;7.10;;;17.90;95.80;;;;;;5052931;28;20656;-80
2021/07/28 04:59:48;;;;;;;10.80;5.87;;;17.90;95.50;;;;;;5051496;28;20184;-80
2021/07/28 05:02:14;;;;;;;11.83;6.93;;;17.90;95.00;;;;;;5051897;28;20677;-80
2021/07/28 05:04:39;;;;;;;7.30;5.30;;;18.00;93.90;;;;;;5052877;28;20169;-78
2021/07/28 05:07:05;;;;;;;9.33;6.20;;;17.90;93.00;;;;;;5053266;28;20576;-78
2021/07/28 05:09:31;;;;;;;11.33;6.00;;;18.00;92.60;;;;;;5052908;28;20172;-78
2021/07/28 05:11:56;;;;;;;10.20;5.80;;;17.90;92.90;;;;;;5051373;28;20242;-81
2021/07/28 05:14:22;;;;;;;7.37;5.53;;;17.90;92.80;;;;;;5052757;28;20176;-80
2021/07/28 05:16:48;;;;;;;9.90;5.80;;;18.00;92.60;;;;;;5052862;28;20219;-80
2021/07/28 05:19:14;;;;;;;10.63;5.20;;;17.90;92.00;;;;;;5052990;28;20169;-77
2021/07/28 05:21:39;;;;;;;10.20;6.10;;;17.80;91.70;;;;;;5052047;28;20197;-79
2021/07/28 05:24:05;;;;;;;10.93;6.13;;;17.80;92.00;;;;;;5052839;28;20191;-81
2021/07/28 05:26:30;;;;;;;8.73;5.67;;;17.90;92.30;;;;;;5052368;28;20185;-79
2021/07/28 05:28:56;;;;;;;11.03;6.10;;;17.90;92.60;;;;;;5052450;28;20162;-77
2021/07/28 05:31:22;;;;;;;10.70;5.63;;;17.90;91.90;;;;;;5052530;28;20331;-80
2021/07/28 05:33:47;;;;;;;9.97;5.67;;;17.90;91.40;;;;;;5051609;28;20183;-77
2021/07/28 05:36:13;;;;;;;10.47;6.37;;;17.90;92.00;;;;;;5052569;28;20226;-77
2021/07/28 05:38:39;;;;;;;14.27;6.23;;;17.90;92.00;;;;;;5051596;28;20173;-78
2021/07/28 05:41:05;;;;;;;12.47;6.40;;;18.00;90.90;;;;;;5052545;28;20240;-77
2021/07/28 05:43:31;;;;;;;13.20;6.80;;;18.10;91.00;;;;;;5051141;28;20176;-78
2021/07/28 05:45:57;;;;;;;14.00;6.33;;;18.10;89.30;;;;;;5052305;28;20476;-81
2021/07/28 05:48:23;;;;;;;8.60;5.60;;;18.20;88.60;;;;;;5052567;28;20184;-79
2021/07/28 05:50:51;;;;;;;11.93;7.10;;;18.40;86.90;;;;;;5052023;28;20169;-77
2021/07/28 05:53:17;;;;;;;14.10;5.87;;;18.40;82.60;;;;;;5052149;28;20185;-80
2021/07/28 05:55:43;;;;;;;14.07;5.40;;;18.30;82.40;;;;;;5051163;28;20180;-79
2021/07/28 05:58:09;;;;;;;11.27;5.90;;;18.40;81.50;;;;;;5052676;28;20180;-79
2021/07/28 06:00:34;;;;;;;12.83;6.43;;;18.30;78.90;;;;;;5052384;28;20629;-78
2021/07/28 06:03:00;;;;;;;13.37;6.43;;;18.20;80.60;;;;;;5052675;28;20539;-78
2021/07/28 06:05:25;;;;;;;10.17;6.97;;;18.20;84.20;;;;;;5056016;28;20652;-77
2021/07/28 06:07:51;;;;;;;11.17;6.40;;;18.20;82.80;;;;;;5055916;28;20180;-81
2021/07/28 06:10:17;;;;;;;8.80;6.27;;;18.10;84.50;;;;;;5056308;28;20173;-81
2021/07/28 06:12:43;;;;;;;10.30;6.30;;;18.20;81.50;;;;;;5059671;28;20257;-79
2021/07/28 06:15:09;;;;;;;9.40;5.73;;;18.20;80.60;;;;;;5077030;28;20543;-78
2021/07/28 06:17:36;;;;;;;10.23;6.10;;;18.20;79.70;;;;;;5085215;28;20257;-77
2021/07/28 06:20:03;;;;;;;12.70;6.20;;;18.20;78.60;;;;;;5096057;28;20164;-78
2021/07/28 06:22:28;;;;;;;15.77;5.77;;;18.30;74.30;;;;;;5080588;28;20518;-77
2021/07/28 06:24:54;;;;;;;11.27;6.07;;;18.30;69.40;;;;;;5075887;28;20222;-78
2021/07/28 06:27:20;;;;;;;11.07;6.03;;;18.40;68.20;;;;;;5075327;28;20632;-80
2021/07/28 06:29:46;;;;;;;8.40;5.13;;;18.60;62.10;;;;;;5079904;28;20191;-78
2021/07/28 06:32:11;;;;;;;10.43;4.80;;;18.60;56.50;;;;;;5094110;28;20233;-79
2021/07/28 06:34:37;;;;;;;10.27;5.27;;;18.60;51.80;;;;;;5095681;28;20171;-81
2021/07/28 06:37:03;;;;;;;11.93;4.90;;;18.70;51.60;;;;;;5095707;28;20536;-79
2021/07/28 06:39:29;;;;;;;9.57;4.97;;;18.70;48.90;;;;;;5094361;28;20209;-80
2021/07/28 06:41:54;;;;;;;12.77;4.53;;;18.60;48.00;;;;;;5095290;28;20169;-80
2021/07/28 06:44:20;;;;;;;14.53;5.33;;;18.70;40.90;;;;;;5095394;28;20160;-81
2021/07/28 06:46:46;;;;;;;9.10;4.90;;;18.90;34.90;;;;;;5091929;28;20193;-79
2021/07/28 06:49:11;;;;;;;7.67;4.73;;;18.90;30.70;;;;;;5075747;28;20167;-80
2021/07/28 06:51:37;;;;;;;7.83;4.23;;;19.00;21.80;;;;;;5075807;28;20255;-82
2021/07/28 06:54:03;;;;;;;13.63;4.37;;;19.10;19.00;;;;;;5076248;28;20242;-81
2021/07/28 06:56:29;;;;;;;9.17;4.43;;;19.20;5.40;;;;;;5078161;28;20228;-79
2021/07/28 06:58:55;;;;;;;10.43;4.20;;;19.30;2.50;;;;;;5065546;28;20178;-80
2021/07/28 07:01:21;;;;;;;11.03;4.10;;;19.20;1.00;;;;;;5078687;28;20667;-81
2021/07/28 07:03:46;;;;;;;9.97;4.23;;;19.10;1.00;;;;;;5074345;28;20271;-82
2021/07/28 07:06:12;;;;;;;8.00;3.83;;;19.20;1.00;;;;;;5079606;28;20545;-81
2021/07/28 07:08:38;;;;;;;8.50;4.20;;;19.20;1.00;;;;;;5081627;28;20164;-82
2021/07/28 07:11:04;;;;;;;8.07;3.70;;;19.20;1.00;;;;;;5096570;28;20600;-79
2021/07/28 07:13:30;;;;;;;7.87;3.63;;;19.20;1.00;;;;;;5089083;28;20172;-80
2021/07/28 07:15:56;;;;;;;7.87;3.93;;;19.20;1.00;;;;;;5081264;28;20257;-79
2021/07/28 07:18:22;;;;;;;8.83;3.80;;;19.20;1.00;;;;;;5093771;28;20249;-80
2021/07/28 07:20:48;;;;;;;10.87;3.80;;;19.20;1.00;;;;;;5095604;28;20174;-79
2021/07/28 07:23:14;;;;;;;9.20;4.50;;;19.20;1.00;;;;;;5092710;28;20185;-78
2021/07/28 07:25:39;;;;;;;12.63;4.60;;;19.40;1.00;;;;;;5095327;28;20193;-78
2021/07/28 07:28:05;;;;;;;10.27;3.20;;;19.40;1.00;;;;;;5097357;28;20195;-79
2021/07/28 07:30:34;;;;;;;9.97;3.97;;;19.50;1.00;;;;;;5091057;28;20253;-81
2021/07/28 07:35:43;;;;;;;7.17;3.37;;;19.50;1.00;;;;;;5087682;28;20179;-80
2021/07/28 07:38:09;;;;;;;7.40;3.07;;;19.40;1.00;;;;;;5079913;28;20542;-80
2021/07/28 07:40:35;;;;;;;7.20;3.00;;;19.50;1.00;;;;;;5075232;28;20217;-81
2021/07/28 07:43:11;;;;;;;9.23;3.70;;;19.60;1.00;;;;;;5075529;28;20153;-81
2021/07/28 07:45:37;;;;;;;12.07;3.60;;;19.70;1.00;;;;;;5074388;28;20185;-79
2021/07/28 07:48:04;;;;;;;5.90;3.30;;;19.80;1.00;;;;;;5074190;28;20164;-81
2021/07/28 07:50:35;;;;;;;10.93;3.23;;;19.90;1.00;;;;;;5074673;28;20259;-80
2021/07/28 07:53:03;;;;;;;9.30;3.23;;;19.80;1.00;;;;;;5072488;28;20682;-80
2021/07/28 07:55:28;;;;;;;6.33;3.23;;;19.70;1.00;;;;;;5073296;28;20759;-81
2021/07/28 07:57:55;;;;;;;6.57;2.60;;;19.60;1.00;;;;;;5075206;28;20188;-80
2021/07/28 08:00:20;;;;;;;8.87;3.60;;;19.50;1.00;;;;;;5093954;28;20149;-81
2021/07/28 08:02:46;;;;;;;9.43;3.17;;;19.50;1.00;;;;;;5098023;28;20196;-80
2021/07/28 08:05:12;;;;;;;8.33;2.93;;;19.80;1.00;;;;;;5097849;28;20172;-80
2021/07/28 08:07:38;;;;;;;7.63;3.17;;;19.90;1.00;;;;;;5079474;28;20324;-80
2021/07/28 08:10:04;;;;;;;8.40;3.07;;;20.00;1.00;;;;;;5075161;28;20182;-80
2021/07/28 08:12:32;;;;;;;11.40;3.27;;;20.00;1.00;;;;;;5075989;28;20199;-79
2021/07/28 08:15:03;;;;;;;10.80;3.40;;;19.90;1.00;;;;;;5074026;28;20555;-81
2021/07/28 08:17:36;;;;;;;7.40;3.10;;;19.90;1.00;;;;;;5073856;28;20168;-81
2021/07/28 08:20:04;;;;;;;5.73;3.17;;;19.90;1.00;;;;;;5073934;28;20523;-81
2021/07/28 08:22:30;;;;;;;12.10;3.60;;;19.90;1.00;;;;;;5073881;28;20228;-81
2021/07/28 08:24:56;;;;;;;7.30;2.97;;;20.00;1.00;;;;;;5073578;28;20194;-82
2021/07/28 08:27:23;;;;;;;7.80;2.90;;;20.10;1.00;;;;;;5074190;28;20225;-81
2021/07/28 08:29:49;;;;;;;7.37;3.23;;;20.20;99.90;;;;;;5073423;28;20183;-82
2021/07/28 08:32:15;;;;;;;9.63;3.07;;;20.50;99.90;;;;;;5072453;28;20211;-81
2021/07/28 08:34:40;;;;;;;10.93;2.90;;;20.60;99.90;;;;;;5072432;28;20550;-83
2021/07/28 08:37:06;;;;;;;5.47;2.60;;;20.60;99.90;;;;;;5073422;28;20189;-80
2021/07/28 08:39:32;;;;;;;7.37;3.00;;;20.60;1.00;;;;;;5073305;28;20168;-82
2021/07/28 08:42:05;;;;;;;6.53;2.77;;;20.50;1.00;;;;;;5072519;28;20179;-83
2021/07/28 08:44:36;;;;;;;7.03;2.67;;;20.30;52.80;;;;;;5073230;28;20172;-82
2021/07/28 08:47:02;;;;;;;6.27;2.90;;;20.30;1.00;;;;;;5074053;28;20186;-82
2021/07/28 08:49:28;;;;;;;8.63;2.90;;;20.30;1.00;;;;;;5072224;28;20205;-82
2021/07/28 08:51:54;;;;;;;7.47;2.90;;;20.30;1.00;;;;;;5071275;28;20208;-82
2021/07/28 08:54:21;;;;;;;6.10;2.60;;;20.40;1.00;;;;;;5071885;28;20178;-81
2021/07/28 08:56:47;;;;;;;7.33;2.87;;;20.60;1.00;;;;;;5072486;28;20204;-82
2021/07/28 08:59:30;;;;;;;6.10;2.70;;;20.60;99.90;;;;;;5071870;28;20613;-81
2021/07/28 09:01:58;;;;;;;6.60;2.73;;;20.60;99.90;;;;;;5073082;28;20180;-80
2021/07/28 09:04:24;;;;;;;4.67;2.87;;;20.50;99.90;;;;;;5074670;28;20537;-82
2021/07/28 09:06:50;;;;;;;7.67;2.80;;;20.40;99.90;;;;;;5072145;28;20209;-82
2021/07/28 09:09:16;;;;;;;7.37;2.80;;;20.30;99.90;;;;;;5072062;28;20544;-81
2021/07/28 09:11:59;;;;;;;6.37;3.03;;;20.40;93.50;;;;;;5073169;28;20211;-83
2021/07/28 09:14:34;;;;;;;5.53;2.97;;;20.50;1.00;;;;;;5051600;28;20174;-80
2021/07/28 09:17:15;;;;;;;5.93;2.67;;;20.50;99.90;;;;;;5051221;28;20208;-82
2021/07/28 09:19:43;;;;;;;4.30;2.53;;;20.60;1.00;;;;;;5051441;28;20595;-82
2021/07/28 09:22:10;;;;;;;5.43;2.80;;;20.40;1.00;;;;;;5068847;28;20265;-81
2021/07/28 09:24:38;;;;;;;6.07;2.90;;;20.30;1.00;;;;;;5072096;28;20227;-82
2021/07/28 09:27:04;;;;;;;8.20;2.93;;;20.20;6.00;;;;;;5073660;28;20189;-82
2021/07/28 09:29:30;;;;;;;6.47;2.97;;;20.30;1.00;;;;;;5071203;28;20180;-81
2021/07/28 09:32:02;;;;;;;7.07;3.33;;;20.50;14.60;;;;;;5072491;28;20192;-80
2021/07/28 09:34:27;;;;;;;8.63;2.70;;;20.70;99.90;;;;;;5072837;28;20316;-82
2021/07/28 09:36:54;;;;;;;8.87;2.53;;;20.80;13.80;;;;;;5072971;28;20203;-80
2021/07/28 09:39:30;;;;;;;6.33;2.40;;;20.90;1.00;;;;;;5077310;28;20212;-81
2021/07/28 09:42:06;;;;;;;6.37;3.00;;;20.80;1.00;;;;;;5078919;28;20162;-80
2021/07/28 09:44:33;;;;;;;5.17;2.80;;;20.70;1.00;;;;;;5080256;28;20174;-80
2021/07/28 09:47:06;;;;;;;4.90;2.53;;;20.90;99.90;;;;;;5076756;28;20161;-82
2021/07/28 09:49:33;;;;;;;6.73;2.57;;;21.00;99.90;;;;;;5076360;28;20237;-81
2021/07/28 09:51:59;;;;;;;6.43;2.60;;;21.20;17.90;;;;;;5076736;28;20219;-81
2021/07/28 09:54:31;;;;;;;7.10;2.60;;;21.20;99.90;;;;;;5075907;28;20172;-81
2021/07/28 09:56:58;;;;;;;7.30;2.97;;;21.30;1.00;;;;;;5075661;28;20183;-80
2021/07/28 09:59:24;;;;;;;6.80;2.67;;;21.50;99.90;;;;;;5077250;28;20591;-82
2021/07/28 10:01:51;;;;;;;6.37;2.80;;;21.30;99.90;;;;;;5077615;28;20169;-81
2021/07/28 10:04:19;;;;;;;6.67;2.50;;;21.30;99.90;;;;;;5075912;28;20168;-82
2021/07/28 10:06:47;;;;;;;11.17;2.87;;;21.50;38.50;;;;;;5075972;28;20641;-81
2021/07/28 10:09:18;;;;;;;5.83;2.47;;;21.80;1.00;;;;;;5076449;28;20230;-82
2021/07/28 10:11:49;;;;;;;6.43;2.53;;;21.90;1.00;;;;;;5075784;28;20193;-81
2021/07/28 10:14:20;;;;;;;7.63;3.00;;;21.70;99.90;;;;;;5075810;28;20179;-82
2021/07/28 10:16:46;;;;;;;5.77;2.90;;;21.50;1.00;;;;;;5075205;28;20168;-82
2021/07/28 10:19:14;;;;;;;6.77;2.80;;;21.20;99.90;;;;;;5075699;28;20179;-82
2021/07/28 10:21:40;;;;;;;5.20;2.47;;;21.20;99.90;;;;;;5074705;28;20205;-80
2021/07/28 10:24:07;;;;;;;4.87;2.23;;;21.30;99.90;;;;;;5075970;28;20195;-81
2021/07/28 10:26:52;;;;;;;7.10;2.70;;;21.10;9.40;;;;;;5074241;28;20717;-81
2021/07/28 10:29:18;;;;;;;5.70;2.47;;;20.90;99.90;;;;;;5075829;28;20168;-83
2021/07/28 10:31:53;;;;;;;7.63;3.00;;;21.00;99.90;;;;;;5075627;28;20216;-82
2021/07/28 10:34:25;;;;;;;5.93;2.50;;;21.00;1.00;;;;;;5075047;28;20174;-82
2021/07/28 10:36:53;;;;;;;8.07;2.77;;;21.00;1.00;;;;;;5074244;28;20506;-80
2021/07/28 10:39:39;;;;;;;4.87;2.50;;;21.00;1.00;;;;;;5078130;28;20172;-82
2021/07/28 10:42:09;;;;;;;6.63;2.50;;;21.10;1.00;;;;;;5075016;28;20602;-80
2021/07/28 10:44:57;;;;;;;6.77;2.70;;;21.10;1.00;;;;;;5076111;28;20175;-80
2021/07/28 10:47:50;;;;;;;5.90;2.83;;;21.10;1.00;;;;;;5077314;28;20177;-83
2021/07/28 10:50:22;;;;;;;6.63;2.40;;;21.10;1.00;;;;;;5073951;28;20183;-84
2021/07/28 10:52:49;;;;;;;6.40;3.00;;;21.20;1.00;;;;;;5075038;28;20211;-82
2021/07/28 10:55:18;;;;;;;7.53;2.60;;;21.50;99.90;;;;;;5077011;28;20222;-84
2021/07/28 10:57:56;;;;;;;5.83;2.60;;;21.60;99.90;;;;;;5075723;28;20210;-81
2021/07/28 11:00:38;;;;;;;6.40;2.73;;;21.60;99.90;;;;;;5075604;28;20185;-82
2021/07/28 11:03:10;;;;;;;6.67;2.53;;;21.80;99.90;;;;;;5073340;28;20166;-81
2021/07/28 11:05:40;;;;;;;6.13;2.23;;;21.80;99.90;;;;;;5074897;28;20161;-80
2021/07/28 11:08:05;;;;;;;6.23;2.57;;;21.90;1.00;;;;;;5073312;28;20196;-82
2021/07/28 11:10:31;;;;;;;5.83;2.60;;;21.90;1.00;;;;;;5075078;28;20206;-82
2021/07/28 11:12:58;;;;;;;8.67;2.47;;;21.80;99.90;;;;;;5082877;28;20205;-80
2021/07/28 11:15:25;;;;;;;5.17;2.20;;;21.70;1.00;;;;;;5095066;28;20181;-81
2021/07/28 11:17:55;;;;;;;6.50;2.53;;;21.60;99.90;;;;;;5094323;28;20242;-81
2021/07/28 11:20:28;;;;;;;6.67;2.93;;;21.60;99.90;;;;;;5095419;28;20171;-82
2021/07/28 11:23:29;;;;;;;5.93;2.53;;;21.60;99.90;;;;;;5056414;28;20175;-79
2021/07/28 11:25:59;;;;;;;6.57;2.60;;;21.60;1.00;;;;;;5061236;28;20234;-79
2021/07/28 11:28:26;;;;;;;8.77;2.60;;;21.70;1.00;;;;;;5067601;28;20208;-79
2021/07/28 11:31:02;;;;;;;4.67;2.63;;;21.90;1.00;;;;;;5072722;28;20181;-81
2021/07/28 11:33:29;;;;;;;4.10;2.27;;;21.90;1.00;;;;;;5062790;28;20208;-80
2021/07/28 11:35:56;;;;;;;8.60;3.07;;;21.70;99.90;;;;;;5060578;28;20199;-80
2021/07/28 11:38:30;;;;;;;7.13;3.20;;;20.90;1.00;;;;;;5063587;28;20176;-80
2021/07/28 11:40:58;;;;;;;6.40;3.60;;;20.00;1.00;;;;;;5066845;28;20170;-79
2021/07/28 11:43:28;;;;;;;7.80;3.80;;;19.60;1.00;;;;;;5058930;28;20201;-81
2021/07/28 11:46:05;;;;;;;7.60;3.80;;;19.30;1.00;;;;;;5053998;28;20180;-81
2021/07/28 11:48:31;;;;;;;8.10;3.13;;;19.40;1.00;;;;;;5055020;28;20159;-80
2021/07/28 11:50:57;;;;;;;5.53;3.40;;;19.50;1.00;;;;;;5054031;28;20258;-80
2021/07/28 11:53:26;;;;;;;8.30;3.40;;;19.50;1.00;;;;;;5054358;28;20227;-81
2021/07/28 11:55:53;;;;;;;6.33;3.10;;;19.70;1.00;;;;;;5052865;28;20181;-81
2021/07/28 11:58:20;;;;;;;6.47;3.17;;;19.90;1.00;;;;;;5052942;28;20223;-80
2021/07/28 12:00:48;;;;;;;8.03;3.50;;;20.00;1.00;;;;;;5053504;28;20641;-80
2021/07/28 12:03:24;;;;;;;6.73;3.20;;;20.20;1.00;;;;;;5053021;28;20645;-81
2021/07/28 12:06:02;;;;;;;6.63;3.10;;;20.30;1.00;;;;;;5053610;28;20179;-81
2021/07/28 12:08:36;;;;;;;4.80;2.90;;;20.60;1.00;;;;;;5053951;28;20193;-80
2021/07/28 12:11:12;;;;;;;4.10;2.50;;;20.70;99.90;;;;;;5067045;28;20169;-82
2021/07/28 12:13:43;;;;;;;4.87;2.50;;;20.80;99.90;;;;;;5081543;28;20181;-81
2021/07/28 12:16:09;;;;;;;6.17;2.67;;;20.90;1.00;;;;;;5082534;28;20170;-79
2021/07/28 12:18:52;;;;;;;5.80;2.63;;;21.10;99.90;;;;;;5078863;28;20243;-80
2021/07/28 12:21:18;;;;;;;4.83;2.20;;;20.90;1.00;;;;;;5078668;28;20168;-81
2021/07/28 12:23:54;;;;;;;3.53;2.00;;;20.90;99.90;;;;;;5080204;28;20186;-80
2021/07/28 12:26:46;;;;;;;6.20;1.97;;;20.50;16.90;;;;;;5097637;28;20165;-80
2021/07/28 12:29:30;;;;;;;5.63;2.00;;;19.30;1.00;;;;;;5116095;28;20164;-81
2021/07/28 12:31:56;;;;;;;3.60;2.10;;;18.70;1.00;;;;;;5111395;28;20203;-79
2021/07/28 12:34:22;;;;;;;3.97;2.30;;;18.30;1.00;;;;;;5104142;28;20176;-83
2021/07/28 12:36:47;;;;;;;4.90;1.70;;;18.20;1.00;;;;;;5100442;28;20171;-81
2021/07/28 12:39:19;;;;;;;4.23;2.17;;;18.10;1.00;;;;;;5094252;28;20178;-82
2021/07/28 12:41:58;;;;;;;5.03;1.90;;;18.10;1.00;;;;;;5093549;28;20172;-81
2021/07/28 12:44:24;;;;;;;4.20;1.97;;;18.20;1.00;;;;;;5084187;28;20191;-83
2021/07/28 12:46:50;;;;;;;3.37;1.80;;;18.30;1.00;;;;;;5074466;28;20210;-83
2021/07/28 12:49:15;;;;;;;4.07;1.97;;;18.30;1.00;;;;;;5073433;28;20641;-81
2021/07/28 12:51:41;;;;;;;4.57;2.20;;;18.30;1.00;;;;;;5074719;28;20280;-83